Terminal Aerodrome Forecast
Issued by NWS

Home | Current Version | Previous Version | Graphics & Text | Print | Product List | Glossary On
Versions: 1 2 3 4 5 6 7 8 9 10 11 12 13 14 15 16 17 18 19 20 21 22 23 24 25
000
FTUS43 KDLH 230500
TAFHIB
TAF
KHIB 230521Z 2306/2406 00000KT 2SM BR SKC
      TEMPO 2306/2310 5SM BR SKC
     FM231300 18002KT P6SM SKC
     FM231700 18010G20KT P6SM SKC
     FM232300 16005KT P6SM SCT250=

USA.gov is the U.S. government's official web portal to all federal, state and local government web resources and services.